sensor_id;sensor_type;location;lat;lon;timestamp;temperature;humidity
50560;DHT22;36510;52.610;13.468;2022-08-20T00:03:00;23.80;55.60
50560;DHT22;36510;52.610;13.468;2022-08-20T00:07:50;23.80;56.70
50560;DHT22;36510;52.610;13.468;2022-08-20T00:12:44;23.80;57.30
50560;DHT22;36510;52.610;13.468;2022-08-20T00:17:34;23.80;58.20
50560;DHT22;36510;52.610;13.468;2022-08-20T00:22:28;23.80;58.50
50560;DHT22;36510;52.610;13.468;2022-08-20T00:27:18;23.80;58.00
50560;DHT22;36510;52.610;13.468;2022-08-20T00:32:08;23.80;57.80
50560;DHT22;36510;52.610;13.468;2022-08-20T00:36:59;23.80;58.40
50560;DHT22;36510;52.610;13.468;2022-08-20T00:41:49;23.80;58.60
50560;DHT22;36510;52.610;13.468;2022-08-20T00:46:45;23.70;58.90
50560;DHT22;36510;52.610;13.468;2022-08-20T00:51:41;23.70;59.40
50560;DHT22;36510;52.610;13.468;2022-08-20T00:56:33;23.70;58.90
50560;DHT22;36510;52.610;13.468;2022-08-20T01:01:24;23.80;58.60
50560;DHT22;36510;52.610;13.468;2022-08-20T01:06:14;23.70;58.50
50560;DHT22;36510;52.610;13.468;2022-08-20T01:11:06;23.60;58.20
50560;DHT22;36510;52.610;13.468;2022-08-20T01:16:01;23.60;57.90
50560;DHT22;36510;52.610;13.468;2022-08-20T01:20:57;23.60;57.80
50560;DHT22;36510;52.610;13.468;2022-08-20T01:26:13;23.60;57.50
50560;DHT22;36510;52.610;13.468;2022-08-20T01:31:07;23.60;57.60
50560;DHT22;36510;52.610;13.468;2022-08-20T01:35:58;23.60;57.50
50560;DHT22;36510;52.610;13.468;2022-08-20T01:41:12;23.50;57.70
50560;DHT22;36510;52.610;13.468;2022-08-20T01:46:04;23.60;57.30
50560;DHT22;36510;52.610;13.468;2022-08-20T01:51:15;23.50;57.50
50560;DHT22;36510;52.610;13.468;2022-08-20T01:56:09;23.60;56.80
50560;DHT22;36510;52.610;13.468;2022-08-20T02:01:00;23.60;56.70
50560;DHT22;36510;52.610;13.468;2022-08-20T02:05:51;23.60;56.60
50560;DHT22;36510;52.610;13.468;2022-08-20T02:10:42;23.50;56.40
50560;DHT22;36510;52.610;13.468;2022-08-20T02:15:36;23.60;56.30
50560;DHT22;36510;52.610;13.468;2022-08-20T02:20:27;23.50;56.90
50560;DHT22;36510;52.610;13.468;2022-08-20T02:25:22;23.50;56.60
50560;DHT22;36510;52.610;13.468;2022-08-20T02:30:17;23.50;56.30
50560;DHT22;36510;52.610;13.468;2022-08-20T02:35:11;23.40;55.30
50560;DHT22;36510;52.610;13.468;2022-08-20T02:40:05;23.30;55.80
50560;DHT22;36510;52.610;13.468;2022-08-20T02:44:57;23.30;55.60
50560;DHT22;36510;52.610;13.468;2022-08-20T02:49:47;23.30;57.00
50560;DHT22;36510;52.610;13.468;2022-08-20T02:54:38;23.20;57.70
50560;DHT22;36510;52.610;13.468;2022-08-20T02:59:29;23.10;57.80
50560;DHT22;36510;52.610;13.468;2022-08-20T03:04:19;23.20;57.80
50560;DHT22;36510;52.610;13.468;2022-08-20T03:09:10;23.20;57.80
50560;DHT22;36510;52.610;13.468;2022-08-20T03:14:00;23.20;57.80
50560;DHT22;36510;52.610;13.468;2022-08-20T03:18:51;23.20;57.90
50560;DHT22;36510;52.610;13.468;2022-08-20T03:23:41;23.30;57.70
50560;DHT22;36510;52.610;13.468;2022-08-20T03:28:32;23.20;57.90
50560;DHT22;36510;52.610;13.468;2022-08-20T03:33:23;23.20;58.20
50560;DHT22;36510;52.610;13.468;2022-08-20T03:38:16;23.10;59.10
50560;DHT22;36510;52.610;13.468;2022-08-20T03:43:07;23.00;59.40
50560;DHT22;36510;52.610;13.468;2022-08-20T03:47:59;23.00;60.00
50560;DHT22;36510;52.610;13.468;2022-08-20T03:52:52;23.00;60.00
50560;DHT22;36510;52.610;13.468;2022-08-20T03:57:51;23.00;60.20
50560;DHT22;36510;52.610;13.468;2022-08-20T04:02:42;23.00;60.60
50560;DHT22;36510;52.610;13.468;2022-08-20T04:07:32;23.00;60.60
50560;DHT22;36510;52.610;13.468;2022-08-20T04:12:24;23.00;60.80
50560;DHT22;36510;52.610;13.468;2022-08-20T04:17:16;22.90;60.70
50560;DHT22;36510;52.610;13.468;2022-08-20T04:22:07;23.00;60.60
50560;DHT22;36510;52.610;13.468;2022-08-20T04:26:59;23.00;60.50
50560;DHT22;36510;52.610;13.468;2022-08-20T04:31:51;23.00;60.00
50560;DHT22;36510;52.610;13.468;2022-08-20T04:36:42;23.00;60.10
50560;DHT22;36510;52.610;13.468;2022-08-20T04:41:32;23.00;60.60
50560;DHT22;36510;52.610;13.468;2022-08-20T04:46:25;23.00;59.90
50560;DHT22;36510;52.610;13.468;2022-08-20T04:51:17;23.00;60.60
50560;DHT22;36510;52.610;13.468;2022-08-20T04:56:08;23.00;59.30
50560;DHT22;36510;52.610;13.468;2022-08-20T05:01:02;23.00;59.20
50560;DHT22;36510;52.610;13.468;2022-08-20T05:05:53;23.00;59.30
50560;DHT22;36510;52.610;13.468;2022-08-20T05:10:44;23.00;59.20
50560;DHT22;36510;52.610;13.468;2022-08-20T05:15:36;23.00;59.30
50560;DHT22;36510;52.610;13.468;2022-08-20T05:20:29;22.90;59.80
50560;DHT22;36510;52.610;13.468;2022-08-20T05:25:20;22.90;58.60
50560;DHT22;36510;52.610;13.468;2022-08-20T05:30:11;23.00;58.10
50560;DHT22;36510;52.610;13.468;2022-08-20T05:35:04;23.00;59.20
50560;DHT22;36510;52.610;13.468;2022-08-20T05:39:55;23.00;59.10
50560;DHT22;36510;52.610;13.468;2022-08-20T05:44:45;23.00;59.00
50560;DHT22;36510;52.610;13.468;2022-08-20T05:49:36;22.80;59.00
50560;DHT22;36510;52.610;13.468;2022-08-20T05:54:27;22.80;59.90
50560;DHT22;36510;52.610;13.468;2022-08-20T05:59:18;22.80;59.70
50560;DHT22;36510;52.610;13.468;2022-08-20T06:04:10;22.90;59.10
50560;DHT22;36510;52.610;13.468;2022-08-20T06:09:19;22.90;59.60
50560;DHT22;36510;52.610;13.468;2022-08-20T06:14:10;23.00;59.10
50560;DHT22;36510;52.610;13.468;2022-08-20T06:19:01;22.90;59.30
50560;DHT22;36510;52.610;13.468;2022-08-20T06:23:51;22.80;57.60
50560;DHT22;36510;52.610;13.468;2022-08-20T06:28:42;22.80;57.30
50560;DHT22;36510;52.610;13.468;2022-08-20T06:33:32;22.80;57.30
50560;DHT22;36510;52.610;13.468;2022-08-20T06:38:22;22.90;57.20
50560;DHT22;36510;52.610;13.468;2022-08-20T06:43:13;22.90;58.70
50560;DHT22;36510;52.610;13.468;2022-08-20T06:48:10;22.90;57.70
50560;DHT22;36510;52.610;13.468;2022-08-20T06:53:01;23.00;58.10
50560;DHT22;36510;52.610;13.468;2022-08-20T06:58:03;23.00;57.90
50560;DHT22;36510;52.610;13.468;2022-08-20T07:02:54;23.00;57.90
50560;DHT22;36510;52.610;13.468;2022-08-20T07:07:46;22.90;58.20
50560;DHT22;36510;52.610;13.468;2022-08-20T07:12:37;23.00;59.30
50560;DHT22;36510;52.610;13.468;2022-08-20T07:17:27;22.90;59.00
50560;DHT22;36510;52.610;13.468;2022-08-20T07:22:18;23.00;58.90
50560;DHT22;36510;52.610;13.468;2022-08-20T07:27:09;23.00;59.10
50560;DHT22;36510;52.610;13.468;2022-08-20T07:32:00;23.00;58.90
50560;DHT22;36510;52.610;13.468;2022-08-20T07:37:09;23.00;59.40
50560;DHT22;36510;52.610;13.468;2022-08-20T07:41:59;22.90;59.00
50560;DHT22;36510;52.610;13.468;2022-08-20T07:46:53;23.00;59.70
50560;DHT22;36510;52.610;13.468;2022-08-20T07:51:43;23.00;59.70
50560;DHT22;36510;52.610;13.468;2022-08-20T07:56:34;23.00;59.70
50560;DHT22;36510;52.610;13.468;2022-08-20T08:01:27;23.00;59.50
50560;DHT22;36510;52.610;13.468;2022-08-20T08:06:21;23.10;58.90
50560;DHT22;36510;52.610;13.468;2022-08-20T08:11:12;23.10;58.50
50560;DHT22;36510;52.610;13.468;2022-08-20T08:16:05;23.10;59.20
50560;DHT22;36510;52.610;13.468;2022-08-20T08:20:56;23.20;59.20
50560;DHT22;36510;52.610;13.468;2022-08-20T08:25:47;23.20;58.90
50560;DHT22;36510;52.610;13.468;2022-08-20T08:30:43;23.20;59.20
50560;DHT22;36510;52.610;13.468;2022-08-20T08:35:36;23.20;59.00
50560;DHT22;36510;52.610;13.468;2022-08-20T08:40:31;23.20;58.60
50560;DHT22;36510;52.610;13.468;2022-08-20T08:45:38;23.20;59.10
50560;DHT22;36510;52.610;13.468;2022-08-20T08:50:35;23.30;58.50
50560;DHT22;36510;52.610;13.468;2022-08-20T08:55:28;23.20;58.50
50560;DHT22;36510;52.610;13.468;2022-08-20T09:00:20;23.30;58.10
50560;DHT22;36510;52.610;13.468;2022-08-20T09:05:14;23.30;58.40
50560;DHT22;36510;52.610;13.468;2022-08-20T09:10:06;23.30;57.80
50560;DHT22;36510;52.610;13.468;2022-08-20T09:14:57;23.30;58.20
50560;DHT22;36510;52.610;13.468;2022-08-20T09:19:48;23.50;58.60
50560;DHT22;36510;52.610;13.468;2022-08-20T09:24:42;23.50;57.80
50560;DHT22;36510;52.610;13.468;2022-08-20T09:29:33;23.60;57.90
50560;DHT22;36510;52.610;13.468;2022-08-20T09:34:24;23.60;58.00
50560;DHT22;36510;52.610;13.468;2022-08-20T09:39:15;23.60;57.20
50560;DHT22;36510;52.610;13.468;2022-08-20T09:44:06;23.70;57.00
50560;DHT22;36510;52.610;13.468;2022-08-20T09:48:56;23.70;56.40
50560;DHT22;36510;52.610;13.468;2022-08-20T09:53:46;23.70;56.50
50560;DHT22;36510;52.610;13.468;2022-08-20T09:58:46;23.60;56.60
50560;DHT22;36510;52.610;13.468;2022-08-20T10:03:38;23.70;55.90
50560;DHT22;36510;52.610;13.468;2022-08-20T10:08:28;23.70;56.00
50560;DHT22;36510;52.610;13.468;2022-08-20T10:13:19;23.80;55.60
50560;DHT22;36510;52.610;13.468;2022-08-20T10:18:09;23.80;55.80
50560;DHT22;36510;52.610;13.468;2022-08-20T10:23:00;23.80;55.60
50560;DHT22;36510;52.610;13.468;2022-08-20T10:27:51;23.90;55.70
50560;DHT22;36510;52.610;13.468;2022-08-20T10:32:41;23.90;54.70
50560;DHT22;36510;52.610;13.468;2022-08-20T10:37:32;23.90;54.90
50560;DHT22;36510;52.610;13.468;2022-08-20T10:42:23;23.90;52.70
50560;DHT22;36510;52.610;13.468;2022-08-20T10:47:22;23.80;49.70
50560;DHT22;36510;52.610;13.468;2022-08-20T10:52:13;24.00;49.90
50560;DHT22;36510;52.610;13.468;2022-08-20T10:57:03;24.00;48.70
50560;DHT22;36510;52.610;13.468;2022-08-20T11:01:54;24.10;47.40
50560;DHT22;36510;52.610;13.468;2022-08-20T11:06:44;24.10;46.50
50560;DHT22;36510;52.610;13.468;2022-08-20T11:11:35;24.30;45.50
50560;DHT22;36510;52.610;13.468;2022-08-20T11:16:25;24.30;43.00
50560;DHT22;36510;52.610;13.468;2022-08-20T11:21:16;24.20;41.20
50560;DHT22;36510;52.610;13.468;2022-08-20T11:26:06;24.20;42.90
50560;DHT22;36510;52.610;13.468;2022-08-20T11:30:58;24.30;42.30
50560;DHT22;36510;52.610;13.468;2022-08-20T11:35:49;24.40;43.20
50560;DHT22;36510;52.610;13.468;2022-08-20T11:40:40;24.40;42.60
50560;DHT22;36510;52.610;13.468;2022-08-20T11:45:30;24.50;41.60
50560;DHT22;36510;52.610;13.468;2022-08-20T11:50:21;24.50;40.30
50560;DHT22;36510;52.610;13.468;2022-08-20T11:55:13;24.50;39.50
50560;DHT22;36510;52.610;13.468;2022-08-20T12:00:07;24.50;41.10
50560;DHT22;36510;52.610;13.468;2022-08-20T12:05:00;24.60;40.10
50560;DHT22;36510;52.610;13.468;2022-08-20T12:09:51;24.60;39.10
50560;DHT22;36510;52.610;13.468;2022-08-20T12:14:42;24.60;39.10
50560;DHT22;36510;52.610;13.468;2022-08-20T12:19:36;24.60;38.90
50560;DHT22;36510;52.610;13.468;2022-08-20T12:24:26;24.50;39.10
50560;DHT22;36510;52.610;13.468;2022-08-20T12:29:17;24.50;38.00
50560;DHT22;36510;52.610;13.468;2022-08-20T12:34:07;24.60;39.10
50560;DHT22;36510;52.610;13.468;2022-08-20T12:38:58;24.50;38.10
50560;DHT22;36510;52.610;13.468;2022-08-20T12:43:48;24.60;38.90
50560;DHT22;36510;52.610;13.468;2022-08-20T12:48:39;24.60;39.00
50560;DHT22;36510;52.610;13.468;2022-08-20T12:53:29;24.60;39.10
50560;DHT22;36510;52.610;13.468;2022-08-20T12:58:20;24.60;39.80
50560;DHT22;36510;52.610;13.468;2022-08-20T13:03:11;24.60;40.70
50560;DHT22;36510;52.610;13.468;2022-08-20T13:08:06;24.50;40.80
50560;DHT22;36510;52.610;13.468;2022-08-20T13:12:57;24.50;41.20
50560;DHT22;36510;52.610;13.468;2022-08-20T13:17:56;24.50;40.60
50560;DHT22;36510;52.610;13.468;2022-08-20T13:22:47;24.50;40.60
50560;DHT22;36510;52.610;13.468;2022-08-20T13:27:39;24.50;41.40
50560;DHT22;36510;52.610;13.468;2022-08-20T13:32:30;24.60;40.80
50560;DHT22;36510;52.610;13.468;2022-08-20T13:37:24;24.50;41.10
50560;DHT22;36510;52.610;13.468;2022-08-20T13:42:14;24.40;41.40
50560;DHT22;36510;52.610;13.468;2022-08-20T13:47:17;24.30;41.20
50560;DHT22;36510;52.610;13.468;2022-08-20T13:52:07;24.30;42.20
50560;DHT22;36510;52.610;13.468;2022-08-20T13:57:09;24.30;43.30
50560;DHT22;36510;52.610;13.468;2022-08-20T14:02:00;24.30;44.70
50560;DHT22;36510;52.610;13.468;2022-08-20T14:06:51;24.20;47.40
50560;DHT22;36510;52.610;13.468;2022-08-20T14:11:41;24.20;47.00
50560;DHT22;36510;52.610;13.468;2022-08-20T14:16:31;24.10;46.90
50560;DHT22;36510;52.610;13.468;2022-08-20T14:21:22;24.10;47.90
50560;DHT22;36510;52.610;13.468;2022-08-20T14:26:13;24.10;50.30
50560;DHT22;36510;52.610;13.468;2022-08-20T14:31:03;24.00;50.50
50560;DHT22;36510;52.610;13.468;2022-08-20T14:35:54;24.10;51.70
50560;DHT22;36510;52.610;13.468;2022-08-20T14:40:45;24.10;53.00
50560;DHT22;36510;52.610;13.468;2022-08-20T14:45:36;24.10;54.00
50560;DHT22;36510;52.610;13.468;2022-08-20T14:50:30;24.00;53.30
50560;DHT22;36510;52.610;13.468;2022-08-20T14:55:23;24.00;53.90
50560;DHT22;36510;52.610;13.468;2022-08-20T15:00:18;24.00;54.60
50560;DHT22;36510;52.610;13.468;2022-08-20T15:05:09;24.00;54.50
50560;DHT22;36510;52.610;13.468;2022-08-20T15:10:01;24.00;54.40
50560;DHT22;36510;52.610;13.468;2022-08-20T15:14:55;23.80;55.60
50560;DHT22;36510;52.610;13.468;2022-08-20T15:19:45;23.70;55.50
50560;DHT22;36510;52.610;13.468;2022-08-20T15:24:36;23.70;55.20
50560;DHT22;36510;52.610;13.468;2022-08-20T15:29:27;23.60;55.40
50560;DHT22;36510;52.610;13.468;2022-08-20T15:34:17;23.50;55.30
50560;DHT22;36510;52.610;13.468;2022-08-20T15:39:08;23.60;56.00
50560;DHT22;36510;52.610;13.468;2022-08-20T15:43:58;23.60;56.30
50560;DHT22;36510;52.610;13.468;2022-08-20T15:48:49;23.60;56.20
50560;DHT22;36510;52.610;13.468;2022-08-20T15:54:05;23.60;56.80
50560;DHT22;36510;52.610;13.468;2022-08-20T16:04:22;23.70;55.50
50560;DHT22;36510;52.610;13.468;2022-08-20T16:09:34;23.70;55.50
50560;DHT22;36510;52.610;13.468;2022-08-20T16:14:30;23.80;55.60
50560;DHT22;36510;52.610;13.468;2022-08-20T16:19:26;23.80;55.60
50560;DHT22;36510;52.610;13.468;2022-08-20T16:24:18;23.70;55.50
50560;DHT22;36510;52.610;13.468;2022-08-20T16:29:20;23.70;56.00
50560;DHT22;36510;52.610;13.468;2022-08-20T16:34:30;23.60;56.30
50560;DHT22;36510;52.610;13.468;2022-08-20T16:39:26;23.70;56.40
50560;DHT22;36510;52.610;13.468;2022-08-20T16:44:34;23.60;56.00
50560;DHT22;36510;52.610;13.468;2022-08-20T16:49:26;23.60;56.80
50560;DHT22;36510;52.610;13.468;2022-08-20T16:54:20;23.50;57.40
50560;DHT22;36510;52.610;13.468;2022-08-20T16:59:18;23.40;58.00
50560;DHT22;36510;52.610;13.468;2022-08-20T17:04:20;23.40;58.20
50560;DHT22;36510;52.610;13.468;2022-08-20T17:09:13;23.40;58.20
50560;DHT22;36510;52.610;13.468;2022-08-20T17:14:06;23.50;58.10
50560;DHT22;36510;52.610;13.468;2022-08-20T17:19:13;23.50;58.10
50560;DHT22;36510;52.610;13.468;2022-08-20T17:29:17;23.50;57.90
50560;DHT22;36510;52.610;13.468;2022-08-20T17:34:20;23.50;58.20
50560;DHT22;36510;52.610;13.468;2022-08-20T17:39:16;23.50;58.10
50560;DHT22;36510;52.610;13.468;2022-08-20T17:44:19;23.50;57.90
50560;DHT22;36510;52.610;13.468;2022-08-20T17:49:13;23.60;58.20
50560;DHT22;36510;52.610;13.468;2022-08-20T17:54:27;23.50;58.10
50560;DHT22;36510;52.610;13.468;2022-08-20T17:59:22;23.40;59.10
50560;DHT22;36510;52.610;13.468;2022-08-20T18:04:14;23.40;58.80
50560;DHT22;36510;52.610;13.468;2022-08-20T18:10:01;23.20;58.40
50560;DHT22;36510;52.610;13.468;2022-08-20T18:15:10;23.30;58.90
50560;DHT22;36510;52.610;13.468;2022-08-20T18:20:12;23.30;58.40
50560;DHT22;36510;52.610;13.468;2022-08-20T18:25:36;23.20;58.30
50560;DHT22;36510;52.610;13.468;2022-08-20T18:30:28;23.20;57.80
50560;DHT22;36510;52.610;13.468;2022-08-20T18:35:22;23.20;57.50
50560;DHT22;36510;52.610;13.468;2022-08-20T18:40:31;23.00;57.70
50560;DHT22;36510;52.610;13.468;2022-08-20T18:45:34;22.90;59.00
50560;DHT22;36510;52.610;13.468;2022-08-20T18:55:34;22.80;58.60
50560;DHT22;36510;52.610;13.468;2022-08-20T19:00:33;22.80;59.00
50560;DHT22;36510;52.610;13.468;2022-08-20T19:10:47;22.70;58.00
50560;DHT22;36510;52.610;13.468;2022-08-20T19:15:42;22.50;58.70
50560;DHT22;36510;52.610;13.468;2022-08-20T19:20:36;22.30;60.30
50560;DHT22;36510;52.610;13.468;2022-08-20T19:25:30;22.30;60.70
50560;DHT22;36510;52.610;13.468;2022-08-20T19:30:30;22.10;61.80
50560;DHT22;36510;52.610;13.468;2022-08-20T19:35:23;22.20;61.10
50560;DHT22;36510;52.610;13.468;2022-08-20T19:40:24;22.20;61.30
50560;DHT22;36510;52.610;13.468;2022-08-20T19:45:29;22.30;60.40
50560;DHT22;36510;52.610;13.468;2022-08-20T19:50:41;22.40;60.10
50560;DHT22;36510;52.610;13.468;2022-08-20T19:55:37;22.40;60.00
50560;DHT22;36510;52.610;13.468;2022-08-20T20:00:44;22.40;59.90
50560;DHT22;36510;52.610;13.468;2022-08-20T20:05:35;22.40;60.10
50560;DHT22;36510;52.610;13.468;2022-08-20T20:10:35;22.40;59.60
50560;DHT22;36510;52.610;13.468;2022-08-20T20:15:26;22.40;59.70
50560;DHT22;36510;52.610;13.468;2022-08-20T20:20:27;22.30;59.70
50560;DHT22;36510;52.610;13.468;2022-08-20T20:25:22;22.30;59.90
50560;DHT22;36510;52.610;13.468;2022-08-20T20:30:26;22.30;59.90
50560;DHT22;36510;52.610;13.468;2022-08-20T20:35:33;22.40;60.30
50560;DHT22;36510;52.610;13.468;2022-08-20T20:40:27;22.40;60.30
50560;DHT22;36510;52.610;13.468;2022-08-20T20:45:19;22.40;60.00
50560;DHT22;36510;52.610;13.468;2022-08-20T20:50:10;22.40;59.30
50560;DHT22;36510;52.610;13.468;2022-08-20T20:55:29;22.40;58.40
50560;DHT22;36510;52.610;13.468;2022-08-20T21:00:23;22.50;58.50
50560;DHT22;36510;52.610;13.468;2022-08-20T21:05:15;22.40;58.90
50560;DHT22;36510;52.610;13.468;2022-08-20T21:10:06;22.40;59.30
50560;DHT22;36510;52.610;13.468;2022-08-20T21:14:57;22.30;58.90
50560;DHT22;36510;52.610;13.468;2022-08-20T21:19:49;22.30;59.50
50560;DHT22;36510;52.610;13.468;2022-08-20T21:24:40;22.30;59.90
50560;DHT22;36510;52.610;13.468;2022-08-20T21:29:31;22.40;59.70
50560;DHT22;36510;52.610;13.468;2022-08-20T21:34:21;22.40;58.90
50560;DHT22;36510;52.610;13.468;2022-08-20T21:39:12;22.50;58.70
50560;DHT22;36510;52.610;13.468;2022-08-20T21:44:09;22.50;58.50
50560;DHT22;36510;52.610;13.468;2022-08-20T21:49:00;22.50;58.00
50560;DHT22;36510;52.610;13.468;2022-08-20T21:53:50;22.50;58.10
50560;DHT22;36510;52.610;13.468;2022-08-20T21:58:41;22.60;58.30
50560;DHT22;36510;52.610;13.468;2022-08-20T22:03:34;22.50;58.10
50560;DHT22;36510;52.610;13.468;2022-08-20T22:08:25;22.60;57.70
50560;DHT22;36510;52.610;13.468;2022-08-20T22:13:16;22.60;57.30
50560;DHT22;36510;52.610;13.468;2022-08-20T22:18:07;22.50;57.20
50560;DHT22;36510;52.610;13.468;2022-08-20T22:23:00;22.50;57.40
50560;DHT22;36510;52.610;13.468;2022-08-20T22:27:51;22.40;57.50
50560;DHT22;36510;52.610;13.468;2022-08-20T22:32:42;22.40;57.40
50560;DHT22;36510;52.610;13.468;2022-08-20T22:37:33;22.40;57.40
50560;DHT22;36510;52.610;13.468;2022-08-20T22:42:23;22.40;57.10
50560;DHT22;36510;52.610;13.468;2022-08-20T22:47:14;22.40;56.90
50560;DHT22;36510;52.610;13.468;2022-08-20T22:52:05;22.40;57.00
50560;DHT22;36510;52.610;13.468;2022-08-20T22:56:56;22.40;57.00
50560;DHT22;36510;52.610;13.468;2022-08-20T23:01:46;22.40;57.10
50560;DHT22;36510;52.610;13.468;2022-08-20T23:06:37;22.30;57.30
50560;DHT22;36510;52.610;13.468;2022-08-20T23:11:28;22.30;57.80
50560;DHT22;36510;52.610;13.468;2022-08-20T23:16:18;22.20;58.30
50560;DHT22;36510;52.610;13.468;2022-08-20T23:21:09;22.20;58.50
50560;DHT22;36510;52.610;13.468;2022-08-20T23:25:59;22.20;58.30
50560;DHT22;36510;52.610;13.468;2022-08-20T23:30:50;22.20;58.40
50560;DHT22;36510;52.610;13.468;2022-08-20T23:35:41;22.20;58.70
50560;DHT22;36510;52.610;13.468;2022-08-20T23:40:33;22.20;58.40
50560;DHT22;36510;52.610;13.468;2022-08-20T23:45:24;22.10;58.10
50560;DHT22;36510;52.610;13.468;2022-08-20T23:50:17;22.10;58.20
50560;DHT22;36510;52.610;13.468;2022-08-20T23:55:08;22.10;58.20
50560;DHT22;36510;52.610;13.468;2022-08-20T23:59:59;22.00;59.00
